Aviation Digital Data Service (ADDS)

Output produced by METARs form (0704 UTC 20 March 2019)
found at http://www.aviationweather.gov/metar/data/
 
METAR text: NWWW 200700Z AUTO 17004KT 9999 BKN047 29/21 Q1011 NOSIG
Conditions at: NWWW (LA TONTOUTA NLLE, WS) observed 0700 UTC 20 March 2019
Temperature: 29.0°C (84°F)
Dewpoint: 21.0°C (70°F) [RH = 62%]
Pressure (altimeter): 29.85 inches Hg (1011.0 mb)
Winds: from the S (170 degrees) at 5 MPH (4 knots; 2.1 m/s)
Visibility: 6 or more miles (10+ km)
Ceiling: 4700 feet AGL
Clouds: broken clouds at 4700 feet AGL
Weather: no significant weather observed at this time

METAR text: NWWW 200630Z AUTO 16005KT 9999 FEW044 30/21 Q1010 NOSIG
Conditions at: NWWW (LA TONTOUTA NLLE, WS) observed 0630 UTC 20 March 2019
Temperature: 30.0°C (86°F)
Dewpoint: 21.0°C (70°F) [RH = 59%]
Pressure (altimeter): 29.82 inches Hg (1010.0 mb)
Winds: from the SSE (160 degrees) at 6 MPH (5 knots; 2.6 m/s)
Visibility: 6 or more miles (10+ km)
Ceiling: at least 12,000 feet AGL
Clouds: few clouds at 4400 feet AGL
Weather: no significant weather observed at this time

METAR text: NWWW 200600Z AUTO 17007KT 140V200 9999 FEW045 30/21 Q1010 TEMPO SHRA FEW020CB
Conditions at: NWWW (LA TONTOUTA NLLE, WS) observed 0600 UTC 20 March 2019
Temperature: 30.0°C (86°F)
Dewpoint: 21.0°C (70°F) [RH = 59%]
Pressure (altimeter): 29.82 inches Hg (1010.0 mb)
Winds: from the S (170 degrees) at 8 MPH (7 knots; 3.6 m/s)
Visibility: 6 or more miles (10+ km)
Ceiling: at least 12,000 feet AGL
Clouds: few clouds at 4500 feet AGL
Weather: no significant weather observed at this time

METAR text: NWWW 200530Z AUTO 18008KT 150V210 9999 BKN042 30/21 Q1010 TEMPO SHRA FEW020CB
Conditions at: NWWW (LA TONTOUTA NLLE, WS) observed 0530 UTC 20 March 2019
Temperature: 30.0°C (86°F)
Dewpoint: 21.0°C (70°F) [RH = 59%]
Pressure (altimeter): 29.82 inches Hg (1010.0 mb)
Winds: from the S (180 degrees) at 9 MPH (8 knots; 4.1 m/s)
Visibility: 6 or more miles (10+ km)
Ceiling: 4200 feet AGL
Clouds: broken clouds at 4200 feet AGL
Weather: no significant weather observed at this time

METAR text: NWWW 200500Z AUTO VRB05KT 9999 BKN039/// OVC045/// ///TCU 30/22 Q1010 TEMPO SHRA FEW020CB
Conditions at: NWWW (LA TONTOUTA NLLE, WS) observed 0500 UTC 20 March 2019
Temperature: 30.0°C (86°F)
Dewpoint: 22.0°C (72°F) [RH = 62%]
Pressure (altimeter): 29.82 inches Hg (1010.0 mb)
Winds: variable direction winds at 6 MPH (5 knots; 2.6 m/s)
Visibility: 6 or more miles (10+ km)
Ceiling: 3900 feet AGL
Clouds: broken clouds at 3900 feet AGL
overcast cloud deck at 4500 feet AGL
Weather: no significant weather observed at this time

METAR text: NWWW 200430Z AUTO 23006KT 180V280 9999 FEW042 BKN050 31/23 Q1010 TEMPO SHRA FEW020CB
Conditions at: NWWW (LA TONTOUTA NLLE, WS) observed 0430 UTC 20 March 2019
Temperature: 31.0°C (88°F)
Dewpoint: 23.0°C (73°F) [RH = 63%]
Pressure (altimeter): 29.82 inches Hg (1010.0 mb)
Winds: from the SW (230 degrees) at 7 MPH (6 knots; 3.1 m/s)
Visibility: 6 or more miles (10+ km)
Ceiling: 5000 feet AGL
Clouds: few clouds at 4200 feet AGL
broken clouds at 5000 feet AGL
Weather: no significant weather observed at this time

METAR text: NWWW 200400Z AUTO 23007KT 180V280 9999 FEW039 31/22 Q1010 TEMPO SHRA FEW020CB
Conditions at: NWWW (LA TONTOUTA NLLE, WS) observed 0400 UTC 20 March 2019
Temperature: 31.0°C (88°F)
Dewpoint: 22.0°C (72°F) [RH = 59%]
Pressure (altimeter): 29.82 inches Hg (1010.0 mb)
Winds: from the SW (230 degrees) at 8 MPH (7 knots; 3.6 m/s)
Visibility: 6 or more miles (10+ km)
Ceiling: at least 12,000 feet AGL
Clouds: few clouds at 3900 feet AGL
Weather: no significant weather observed at this time

METAR text: NWWW 200330Z AUTO 23007KT 190V270 9999 FEW043 SCT052 32/23 Q1010 TEMPO SHRA FEW020CB
Conditions at: NWWW (LA TONTOUTA NLLE, WS) observed 0330 UTC 20 March 2019
Temperature: 32.0°C (90°F)
Dewpoint: 23.0°C (73°F) [RH = 59%]
Pressure (altimeter): 29.82 inches Hg (1010.0 mb)
Winds: from the SW (230 degrees) at 8 MPH (7 knots; 3.6 m/s)
Visibility: 6 or more miles (10+ km)
Ceiling: at least 12,000 feet AGL
Clouds: few clouds at 4300 feet AGL
scattered clouds at 5200 feet AGL
Weather: no significant weather observed at this time

METAR text: NWWW 200300Z AUTO 27006KT 170V270 9999 SCT048 BKN064 31/20 Q1011 TEMPO SHRA FEW020CB
Conditions at: NWWW (LA TONTOUTA NLLE, WS) observed 0300 UTC 20 March 2019
Temperature: 31.0°C (88°F)
Dewpoint: 20.0°C (68°F) [RH = 52%]
Pressure (altimeter): 29.85 inches Hg (1011.0 mb)
Winds: from the W (270 degrees) at 7 MPH (6 knots; 3.1 m/s)
Visibility: 6 or more miles (10+ km)
Ceiling: 6400 feet AGL
Clouds: scattered clouds at 4800 feet AGL
broken clouds at 6400 feet AGL
Weather: no significant weather observed at this time

METAR text: NWWW 200230Z AUTO 04008KT 360V090 9999 BKN068 31/21 Q1011 TEMPO SHRA FEW020CB
Conditions at: NWWW (LA TONTOUTA NLLE, WS) observed 0230 UTC 20 March 2019
Temperature: 31.0°C (88°F)
Dewpoint: 21.0°C (70°F) [RH = 55%]
Pressure (altimeter): 29.85 inches Hg (1011.0 mb)
Winds: from the NE (40 degrees) at 9 MPH (8 knots; 4.1 m/s)
Visibility: 6 or more miles (10+ km)
Ceiling: 6800 feet AGL
Clouds: broken clouds at 6800 feet AGL
Weather: no significant weather observed at this time

METAR text: NWWW 200200Z AUTO 01008KT 330V060 9999 SCT064 31/21 Q1011 TEMPO SHRA FEW020CB
Conditions at: NWWW (LA TONTOUTA NLLE, WS) observed 0200 UTC 20 March 2019
Temperature: 31.0°C (88°F)
Dewpoint: 21.0°C (70°F) [RH = 55%]
Pressure (altimeter): 29.85 inches Hg (1011.0 mb)
Winds: from the N (10 degrees) at 9 MPH (8 knots; 4.1 m/s)
Visibility: 6 or more miles (10+ km)
Ceiling: at least 12,000 feet AGL
Clouds: scattered clouds at 6400 feet AGL
Weather: no significant weather observed at this time

METAR text: NWWW 200130Z AUTO 01009KT 340V060 9999 FEW047 30/20 Q1011 TEMPO SHRA FEW020CB
Conditions at: NWWW (LA TONTOUTA NLLE, WS) observed 0130 UTC 20 March 2019
Temperature: 30.0°C (86°F)
Dewpoint: 20.0°C (68°F) [RH = 55%]
Pressure (altimeter): 29.85 inches Hg (1011.0 mb)
Winds: from the N (10 degrees) at 10 MPH (9 knots; 4.6 m/s)
Visibility: 6 or more miles (10+ km)
Ceiling: at least 12,000 feet AGL
Clouds: few clouds at 4700 feet AGL
Weather: no significant weather observed at this time

METAR text: NWWW 200100Z AUTO 04010KT 350V080 9999 SCT046 SCT200 BKN230 29/21 Q1011 TEMPO FEW020TCU BECMG 19008KT
Conditions at: NWWW (LA TONTOUTA NLLE, WS) observed 0100 UTC 20 March 2019
Temperature: 29.0°C (84°F)
Dewpoint: 21.0°C (70°F) [RH = 62%]
Pressure (altimeter): 29.85 inches Hg (1011.0 mb)
Winds: from the NE (40 degrees) at 12 MPH (10 knots; 5.1 m/s)
Visibility: 6 or more miles (10+ km)
Ceiling: 23000 feet AGL
Clouds: scattered clouds at 4600 feet AGL
scattered clouds at 20000 feet AGL
broken clouds at 23000 feet AGL
Weather: no significant weather observed at this time

METAR text: NWWW 200030Z AUTO 02008KT 350V060 CAVOK 30/23 Q1012 TEMPO FEW020TCU
Conditions at: NWWW (LA TONTOUTA NLLE, WS) observed 0030 UTC 20 March 2019
Temperature: 30.0°C (86°F)
Dewpoint: 23.0°C (73°F) [RH = 66%]
Pressure (altimeter): 29.88 inches Hg (1012.0 mb)
Winds: from the NNE (20 degrees) at 9 MPH (8 knots; 4.1 m/s)
Visibility: 6 or more miles (10+ km)
Ceiling: ceiling and visibility are OK
Clouds: unknown
Weather: no significant weather observed at this time

METAR text: NWWW 200000Z AUTO 09004KT 030V150 CAVOK 30/22 Q1012 TEMPO FEW020TCU
Conditions at: NWWW (LA TONTOUTA NLLE, WS) observed 0000 UTC 20 March 2019
Temperature: 30.0°C (86°F)
Dewpoint: 22.0°C (72°F) [RH = 62%]
Pressure (altimeter): 29.88 inches Hg (1012.0 mb)
Winds: from the E (90 degrees) at 5 MPH (4 knots; 2.1 m/s)
Visibility: 6 or more miles (10+ km)
Ceiling: ceiling and visibility are OK
Clouds: unknown
Weather: no significant weather observed at this time

METAR text: NWWW 192330Z AUTO VRB03KT CAVOK 29/22 Q1012 TEMPO FEW020TCU
Conditions at: NWWW (LA TONTOUTA NLLE, WS) observed 2330 UTC 19 March 2019
Temperature: 29.0°C (84°F)
Dewpoint: 22.0°C (72°F) [RH = 66%]
Pressure (altimeter): 29.88 inches Hg (1012.0 mb)
Winds: variable direction winds at 3 MPH (3 knots; 1.5 m/s)
Visibility: 6 or more miles (10+ km)
Ceiling: ceiling and visibility are OK
Clouds: unknown
Weather: no significant weather observed at this time

METAR text: NWWW 192300Z AUTO 14003KT 100V220 9999 FEW056 BKN076 BKN230 28/22 Q1013 TEMPO VRB15G25KT 2000 SHRA BKN010 FEW020CB
Conditions at: NWWW (LA TONTOUTA NLLE, WS) observed 2300 UTC 19 March 2019
Temperature: 28.0°C (82°F)
Dewpoint: 22.0°C (72°F) [RH = 70%]
Pressure (altimeter): 29.91 inches Hg (1013.0 mb)
Winds: from the SE (140 degrees) at 3 MPH (3 knots; 1.5 m/s)
Visibility: 6 or more miles (10+ km)
Ceiling: 7600 feet AGL
Clouds: few clouds at 5600 feet AGL
broken clouds at 7600 feet AGL
broken clouds at 23000 feet AGL
Weather: no significant weather observed at this time

METAR text: NWWW 192230Z AUTO 18004KT 150V210 CAVOK 27/22 Q1013 TEMPO VRB15G25KT 2000 SHRA BKN010 FEW020CB
Conditions at: NWWW (LA TONTOUTA NLLE, WS) observed 2230 UTC 19 March 2019
Temperature: 27.0°C (81°F)
Dewpoint: 22.0°C (72°F) [RH = 74%]
Pressure (altimeter): 29.91 inches Hg (1013.0 mb)
Winds: from the S (180 degrees) at 5 MPH (4 knots; 2.1 m/s)
Visibility: 6 or more miles (10+ km)
Ceiling: ceiling and visibility are OK
Clouds: unknown
Weather: no significant weather observed at this time

METAR text: NWWW 192200Z AUTO VRB02KT CAVOK 27/22 Q1013 TEMPO VRB15G25KT 2000 SHRA BKN010 FEW020CB
Conditions at: NWWW (LA TONTOUTA NLLE, WS) observed 2200 UTC 19 March 2019
Temperature: 27.0°C (81°F)
Dewpoint: 22.0°C (72°F) [RH = 74%]
Pressure (altimeter): 29.91 inches Hg (1013.0 mb)
Winds: variable direction winds at 2 MPH (2 knots; 1.0 m/s)
Visibility: 6 or more miles (10+ km)
Ceiling: ceiling and visibility are OK
Clouds: unknown
Weather: no significant weather observed at this time

METAR text: NWWW 192130Z AUTO 15003KT CAVOK 26/22 Q1013 TEMPO VRB15G25KT 2000 SHRA BKN010 FEW020CB
Conditions at: NWWW (LA TONTOUTA NLLE, WS) observed 2130 UTC 19 March 2019
Temperature: 26.0°C (79°F)
Dewpoint: 22.0°C (72°F) [RH = 79%]
Pressure (altimeter): 29.91 inches Hg (1013.0 mb)
Winds: from the SSE (150 degrees) at 3 MPH (3 knots; 1.5 m/s)
Visibility: 6 or more miles (10+ km)
Ceiling: ceiling and visibility are OK
Clouds: unknown
Weather: no significant weather observed at this time

METAR text: NWWW 192100Z AUTO 00000KT CAVOK 26/22 Q1012 TEMPO VRB15G25KT 2000 SHRA BKN010 FEW020CB
Conditions at: NWWW (LA TONTOUTA NLLE, WS) observed 2100 UTC 19 March 2019
Temperature: 26.0°C (79°F)
Dewpoint: 22.0°C (72°F) [RH = 79%]
Pressure (altimeter): 29.88 inches Hg (1012.0 mb)
Winds: calm
Visibility: 6 or more miles (10+ km)
Ceiling: ceiling and visibility are OK
Clouds: unknown
Weather: no significant weather observed at this time

METAR text: NWWW 192030Z AUTO VRB01KT CAVOK 25/21 Q1012 TEMPO VRB15G25KT 2000 SHRA BKN010 FEW020CB
Conditions at: NWWW (LA TONTOUTA NLLE, WS) observed 2030 UTC 19 March 2019
Temperature: 25.0°C (77°F)
Dewpoint: 21.0°C (70°F) [RH = 79%]
Pressure (altimeter): 29.88 inches Hg (1012.0 mb)
Winds: variable direction winds at 1 MPH (1 knots; 0.5 m/s)
Visibility: 6 or more miles (10+ km)
Ceiling: ceiling and visibility are OK
Clouds: unknown
Weather: no significant weather observed at this time

METAR text: NWWW 192000Z AUTO 00000KT 9999 SCT064 OVC076 25/22 Q1012 TEMPO 4500 SHRA FEW017CB
Conditions at: NWWW (LA TONTOUTA NLLE, WS) observed 2000 UTC 19 March 2019
Temperature: 25.0°C (77°F)
Dewpoint: 22.0°C (72°F) [RH = 83%]
Pressure (altimeter): 29.88 inches Hg (1012.0 mb)
Winds: calm
Visibility: 6 or more miles (10+ km)
Ceiling: 7600 feet AGL
Clouds: scattered clouds at 6400 feet AGL
overcast cloud deck at 7600 feet AGL
Weather: no significant weather observed at this time

METAR text: NWWW 191930Z AUTO 08002KT 9999 SCT052 OVC064 24/21 Q1012 TEMPO 4500 SHRA FEW017CB
Conditions at: NWWW (LA TONTOUTA NLLE, WS) observed 1930 UTC 19 March 2019
Temperature: 24.0°C (75°F)
Dewpoint: 21.0°C (70°F) [RH = 83%]
Pressure (altimeter): 29.88 inches Hg (1012.0 mb)
Winds: from the E (80 degrees) at 2 MPH (2 knots; 1.0 m/s)
Visibility: 6 or more miles (10+ km)
Ceiling: 6400 feet AGL
Clouds: scattered clouds at 5200 feet AGL
overcast cloud deck at 6400 feet AGL
Weather: no significant weather observed at this time

METAR text: NWWW 191900Z AUTO VRB01KT 9999 BKN052 OVC062 24/22 Q1012 TEMPO 4500 SHRA FEW017CB
Conditions at: NWWW (LA TONTOUTA NLLE, WS) observed 1900 UTC 19 March 2019
Temperature: 24.0°C (75°F)
Dewpoint: 22.0°C (72°F) [RH = 89%]
Pressure (altimeter): 29.88 inches Hg (1012.0 mb)
Winds: variable direction winds at 1 MPH (1 knots; 0.5 m/s)
Visibility: 6 or more miles (10+ km)
Ceiling: 5200 feet AGL
Clouds: broken clouds at 5200 feet AGL
overcast cloud deck at 6200 feet AGL
Weather: no significant weather observed at this time

METAR text: NWWW 191830Z AUTO 01004KT 330V070 9999 FEW052 OVC064 24/22 Q1012 TEMPO 4500 SHRA FEW017CB
Conditions at: NWWW (LA TONTOUTA NLLE, WS) observed 1830 UTC 19 March 2019
Temperature: 24.0°C (75°F)
Dewpoint: 22.0°C (72°F) [RH = 89%]
Pressure (altimeter): 29.88 inches Hg (1012.0 mb)
Winds: from the N (10 degrees) at 5 MPH (4 knots; 2.1 m/s)
Visibility: 6 or more miles (10+ km)
Ceiling: 6400 feet AGL
Clouds: few clouds at 5200 feet AGL
overcast cloud deck at 6400 feet AGL
Weather: no significant weather observed at this time

METAR text: NWWW 191800Z AUTO 02006KT 350V060 9999 OVC064 25/21 Q1011 TEMPO 4500 SHRA FEW017CB
Conditions at: NWWW (LA TONTOUTA NLLE, WS) observed 1800 UTC 19 March 2019
Temperature: 25.0°C (77°F)
Dewpoint: 21.0°C (70°F) [RH = 79%]
Pressure (altimeter): 29.85 inches Hg (1011.0 mb)
Winds: from the NNE (20 degrees) at 7 MPH (6 knots; 3.1 m/s)
Visibility: 6 or more miles (10+ km)
Ceiling: 6400 feet AGL
Clouds: overcast cloud deck at 6400 feet AGL
Weather: no significant weather observed at this time

METAR text: NWWW 191730Z AUTO 01008KT 9999 OVC068 25/21 Q1011 TEMPO SHRA FEW020TCU
Conditions at: NWWW (LA TONTOUTA NLLE, WS) observed 1730 UTC 19 March 2019
Temperature: 25.0°C (77°F)
Dewpoint: 21.0°C (70°F) [RH = 79%]
Pressure (altimeter): 29.85 inches Hg (1011.0 mb)
Winds: from the N (10 degrees) at 9 MPH (8 knots; 4.1 m/s)
Visibility: 6 or more miles (10+ km)
Ceiling: 6800 feet AGL
Clouds: overcast cloud deck at 6800 feet AGL
Weather: no significant weather observed at this time

METAR text: NWWW 191700Z AUTO 03005KT 350V070 9999 ///TCU 25/20 Q1011 TEMPO SHRA
Conditions at: NWWW (LA TONTOUTA NLLE, WS) observed 1700 UTC 19 March 2019
Temperature: 25.0°C (77°F)
Dewpoint: 20.0°C (68°F) [RH = 74%]
Pressure (altimeter): 29.85 inches Hg (1011.0 mb)
Winds: from the NNE (30 degrees) at 6 MPH (5 knots; 2.6 m/s)
Visibility: 6 or more miles (10+ km)
Ceiling: unknown
Clouds: missing
Weather: no significant weather observed at this time

METAR text: NWWW 191630Z AUTO 01004KT 330V040 9999 BKN068/// BKN080/// OVC190/// ///CB 24/21 Q1011 TEMPO SHRA
Conditions at: NWWW (LA TONTOUTA NLLE, WS) observed 1630 UTC 19 March 2019
Temperature: 24.0°C (75°F)
Dewpoint: 21.0°C (70°F) [RH = 83%]
Pressure (altimeter): 29.85 inches Hg (1011.0 mb)
Winds: from the N (10 degrees) at 5 MPH (4 knots; 2.1 m/s)
Visibility: 6 or more miles (10+ km)
Ceiling: 6800 feet AGL
Clouds: broken clouds at 6800 feet AGL
broken clouds at 8000 feet AGL
overcast cloud deck at 19000 feet AGL
Weather: no significant weather observed at this time

METAR text: NWWW 191600Z AUTO 36004KT 330V050 9999 OVC068 25/21 Q1011 TEMPO SHRA FEW020TCU
Conditions at: NWWW (LA TONTOUTA NLLE, WS) observed 1600 UTC 19 March 2019
Temperature: 25.0°C (77°F)
Dewpoint: 21.0°C (70°F) [RH = 79%]
Pressure (altimeter): 29.85 inches Hg (1011.0 mb)
Winds: from the N (360 degrees) at 5 MPH (4 knots; 2.1 m/s)
Visibility: 6 or more miles (10+ km)
Ceiling: 6800 feet AGL
Clouds: overcast cloud deck at 6800 feet AGL
Weather: no significant weather observed at this time

METAR text: NWWW 191530Z AUTO 08004KT 030V120 9999 BKN066/// OVC180/// ///TCU 25/21 Q1011 TEMPO SHRA
Conditions at: NWWW (LA TONTOUTA NLLE, WS) observed 1530 UTC 19 March 2019
Temperature: 25.0°C (77°F)
Dewpoint: 21.0°C (70°F) [RH = 79%]
Pressure (altimeter): 29.85 inches Hg (1011.0 mb)
Winds: from the E (80 degrees) at 5 MPH (4 knots; 2.1 m/s)
Visibility: 6 or more miles (10+ km)
Ceiling: 6600 feet AGL
Clouds: broken clouds at 6600 feet AGL
overcast cloud deck at 18000 feet AGL
Weather: no significant weather observed at this time

METAR text: NWWW 191500Z AUTO 05003KT 020V090 9999 BKN068/// BKN180/// OVC200/// ///CB 25/20 Q1011 TEMPO SHRA
Conditions at: NWWW (LA TONTOUTA NLLE, WS) observed 1500 UTC 19 March 2019
Temperature: 25.0°C (77°F)
Dewpoint: 20.0°C (68°F) [RH = 74%]
Pressure (altimeter): 29.85 inches Hg (1011.0 mb)
Winds: from the NE (50 degrees) at 3 MPH (3 knots; 1.5 m/s)
Visibility: 6 or more miles (10+ km)
Ceiling: 6800 feet AGL
Clouds: broken clouds at 6800 feet AGL
broken clouds at 18000 feet AGL
overcast cloud deck at 20000 feet AGL
Weather: no significant weather observed at this time

METAR text: NWWW 191430Z AUTO VRB02KT 9999 FEW062/// BKN074/// BKN250/// ///CB 25/21 Q1012 TEMPO SHRA
Conditions at: NWWW (LA TONTOUTA NLLE, WS) observed 1430 UTC 19 March 2019
Temperature: 25.0°C (77°F)
Dewpoint: 21.0°C (70°F) [RH = 79%]
Pressure (altimeter): 29.88 inches Hg (1012.0 mb)
Winds: variable direction winds at 2 MPH (2 knots; 1.0 m/s)
Visibility: 6 or more miles (10+ km)
Ceiling: 7400 feet AGL
Clouds: few clouds at 6200 feet AGL
broken clouds at 7400 feet AGL
broken clouds at 25000 feet AGL
Weather: no significant weather observed at this time

METAR text: NWWW 191400Z AUTO 02007KT 350V050 9999 OVC070/// ///CB 25/22 Q1012 TEMPO 4000 SHRA BKN014 FEW020CB
Conditions at: NWWW (LA TONTOUTA NLLE, WS) observed 1400 UTC 19 March 2019
Temperature: 25.0°C (77°F)
Dewpoint: 22.0°C (72°F) [RH = 83%]
Pressure (altimeter): 29.88 inches Hg (1012.0 mb)
Winds: from the NNE (20 degrees) at 8 MPH (7 knots; 3.6 m/s)
Visibility: 6 or more miles (10+ km)
Ceiling: 7000 feet AGL
Clouds: overcast cloud deck at 7000 feet AGL
Weather: no significant weather observed at this time

METAR text: NWWW 191330Z AUTO 01005KT 9999 FEW052/// OVC070/// ///CB 25/21 Q1012 TEMPO 4000 SHRA BKN014 FEW020CB
Conditions at: NWWW (LA TONTOUTA NLLE, WS) observed 1330 UTC 19 March 2019
Temperature: 25.0°C (77°F)
Dewpoint: 21.0°C (70°F) [RH = 79%]
Pressure (altimeter): 29.88 inches Hg (1012.0 mb)
Winds: from the N (10 degrees) at 6 MPH (5 knots; 2.6 m/s)
Visibility: 6 or more miles (10+ km)
Ceiling: 7000 feet AGL
Clouds: few clouds at 5200 feet AGL
overcast cloud deck at 7000 feet AGL
Weather: no significant weather observed at this time

METAR text: NWWW 191300Z AUTO VRB02KT 9999 ///CB 25/21 Q1013 TEMPO 4000 SHRA BKN014 FEW020CB
Conditions at: NWWW (LA TONTOUTA NLLE, WS) observed 1300 UTC 19 March 2019
Temperature: 25.0°C (77°F)
Dewpoint: 21.0°C (70°F) [RH = 79%]
Pressure (altimeter): 29.91 inches Hg (1013.0 mb)
Winds: variable direction winds at 2 MPH (2 knots; 1.0 m/s)
Visibility: 6 or more miles (10+ km)
Ceiling: unknown
Clouds: missing
Weather: no significant weather observed at this time

METAR text: NWWW 191230Z AUTO VRB03KT 9999 FEW054/// BKN074/// ///CB 25/21 Q1013 TEMPO 4000 SHRA BKN014 FEW020CB
Conditions at: NWWW (LA TONTOUTA NLLE, WS) observed 1230 UTC 19 March 2019
Temperature: 25.0°C (77°F)
Dewpoint: 21.0°C (70°F) [RH = 79%]
Pressure (altimeter): 29.91 inches Hg (1013.0 mb)
Winds: variable direction winds at 3 MPH (3 knots; 1.5 m/s)
Visibility: 6 or more miles (10+ km)
Ceiling: 7400 feet AGL
Clouds: few clouds at 5400 feet AGL
broken clouds at 7400 feet AGL
Weather: no significant weather observed at this time

METAR text: NWWW 191200Z AUTO 00000KT 9999 ///TCU 25/21 Q1013 TEMPO 4000 SHRA BKN014 FEW020CB
Conditions at: NWWW (LA TONTOUTA NLLE, WS) observed 1200 UTC 19 March 2019
Temperature: 25.0°C (77°F)
Dewpoint: 21.0°C (70°F) [RH = 79%]
Pressure (altimeter): 29.91 inches Hg (1013.0 mb)
Winds: calm
Visibility: 6 or more miles (10+ km)
Ceiling: unknown
Clouds: missing
Weather: no significant weather observed at this time

METAR text: NWWW 191130Z AUTO 10003KT 9999 ///CB 25/21 Q1013 BECMG SCT040
Conditions at: NWWW (LA TONTOUTA NLLE, WS) observed 1130 UTC 19 March 2019
Temperature: 25.0°C (77°F)
Dewpoint: 21.0°C (70°F) [RH = 79%]
Pressure (altimeter): 29.91 inches Hg (1013.0 mb)
Winds: from the E (100 degrees) at 3 MPH (3 knots; 1.5 m/s)
Visibility: 6 or more miles (10+ km)
Ceiling: unknown
Clouds: missing
Weather: no significant weather observed at this time

METAR text: NWWW 191100Z AUTO VRB01KT 9999 ///TCU 26/21 Q1013 BECMG SCT040
Conditions at: NWWW (LA TONTOUTA NLLE, WS) observed 1100 UTC 19 March 2019
Temperature: 26.0°C (79°F)
Dewpoint: 21.0°C (70°F) [RH = 74%]
Pressure (altimeter): 29.91 inches Hg (1013.0 mb)
Winds: variable direction winds at 1 MPH (1 knots; 0.5 m/s)
Visibility: 6 or more miles (10+ km)
Ceiling: unknown
Clouds: missing
Weather: no significant weather observed at this time

METAR text: NWWW 191030Z AUTO VRB03KT 9999 FEW058/// OVC078/// ///TCU 26/20 Q1013 BECMG SCT040
Conditions at: NWWW (LA TONTOUTA NLLE, WS) observed 1030 UTC 19 March 2019
Temperature: 26.0°C (79°F)
Dewpoint: 20.0°C (68°F) [RH = 70%]
Pressure (altimeter): 29.91 inches Hg (1013.0 mb)
Winds: variable direction winds at 3 MPH (3 knots; 1.5 m/s)
Visibility: 6 or more miles (10+ km)
Ceiling: 7800 feet AGL
Clouds: few clouds at 5800 feet AGL
overcast cloud deck at 7800 feet AGL
Weather: no significant weather observed at this time

METAR text: NWWW 191000Z AUTO 06005KT 360V090 9999 OVC056/// ///CB 25/22 Q1013 BECMG SCT040
Conditions at: NWWW (LA TONTOUTA NLLE, WS) observed 1000 UTC 19 March 2019
Temperature: 25.0°C (77°F)
Dewpoint: 22.0°C (72°F) [RH = 83%]
Pressure (altimeter): 29.91 inches Hg (1013.0 mb)
Winds: from the ENE (60 degrees) at 6 MPH (5 knots; 2.6 m/s)
Visibility: 6 or more miles (10+ km)
Ceiling: 5600 feet AGL
Clouds: overcast cloud deck at 5600 feet AGL
Weather: no significant weather observed at this time

METAR text: NWWW 190930Z AUTO 02006KT 350V060 9999 FEW056/// ///CB 26/21 Q1013 BECMG SCT040
Conditions at: NWWW (LA TONTOUTA NLLE, WS) observed 0930 UTC 19 March 2019
Temperature: 26.0°C (79°F)
Dewpoint: 21.0°C (70°F) [RH = 74%]
Pressure (altimeter): 29.91 inches Hg (1013.0 mb)
Winds: from the NNE (20 degrees) at 7 MPH (6 knots; 3.1 m/s)
Visibility: 6 or more miles (10+ km)
Ceiling: at least 12,000 feet AGL
Clouds: few clouds at 5600 feet AGL
Weather: no significant weather observed at this time

METAR text: NWWW 190900Z AUTO 02004KT 350V060 9999 ///TCU 26/20 Q1012 BECMG SCT040
Conditions at: NWWW (LA TONTOUTA NLLE, WS) observed 0900 UTC 19 March 2019
Temperature: 26.0°C (79°F)
Dewpoint: 20.0°C (68°F) [RH = 70%]
Pressure (altimeter): 29.88 inches Hg (1012.0 mb)
Winds: from the NNE (20 degrees) at 5 MPH (4 knots; 2.1 m/s)
Visibility: 6 or more miles (10+ km)
Ceiling: unknown
Clouds: missing
Weather: no significant weather observed at this time

METAR text: NWWW 190830Z AUTO 03004KT 350V070 CAVOK 27/21 Q1012 NOSIG
Conditions at: NWWW (LA TONTOUTA NLLE, WS) observed 0830 UTC 19 March 2019
Temperature: 27.0°C (81°F)
Dewpoint: 21.0°C (70°F) [RH = 70%]
Pressure (altimeter): 29.88 inches Hg (1012.0 mb)
Winds: from the NNE (30 degrees) at 5 MPH (4 knots; 2.1 m/s)
Visibility: 6 or more miles (10+ km)
Ceiling: ceiling and visibility are OK
Clouds: unknown
Weather: no significant weather observed at this time

METAR text: NWWW 190800Z AUTO 01005KT 350V050 CAVOK 27/20 Q1012 NOSIG
Conditions at: NWWW (LA TONTOUTA NLLE, WS) observed 0800 UTC 19 March 2019
Temperature: 27.0°C (81°F)
Dewpoint: 20.0°C (68°F) [RH = 66%]
Pressure (altimeter): 29.88 inches Hg (1012.0 mb)
Winds: from the N (10 degrees) at 6 MPH (5 knots; 2.6 m/s)
Visibility: 6 or more miles (10+ km)
Ceiling: ceiling and visibility are OK
Clouds: unknown
Weather: no significant weather observed at this time

METAR text: NWWW 190730Z AUTO 08005KT 050V110 CAVOK 27/21 Q1011 NOSIG
Conditions at: NWWW (LA TONTOUTA NLLE, WS) observed 0730 UTC 19 March 2019
Temperature: 27.0°C (81°F)
Dewpoint: 21.0°C (70°F) [RH = 70%]
Pressure (altimeter): 29.85 inches Hg (1011.0 mb)
Winds: from the E (80 degrees) at 6 MPH (5 knots; 2.6 m/s)
Visibility: 6 or more miles (10+ km)
Ceiling: ceiling and visibility are OK
Clouds: unknown
Weather: no significant weather observed at this time

METAR text: NWWW 190700Z AUTO 12006KT 9999 FEW040 BKN049 BKN058 28/22 Q1011 NOSIG
Conditions at: NWWW (LA TONTOUTA NLLE, WS) observed 0700 UTC 19 March 2019
Temperature: 28.0°C (82°F)
Dewpoint: 22.0°C (72°F) [RH = 70%]
Pressure (altimeter): 29.85 inches Hg (1011.0 mb)
Winds: from the ESE (120 degrees) at 7 MPH (6 knots; 3.1 m/s)
Visibility: 6 or more miles (10+ km)
Ceiling: 4900 feet AGL
Clouds: few clouds at 4000 feet AGL
broken clouds at 4900 feet AGL
broken clouds at 5800 feet AGL
Weather: no significant weather observed at this time

METAR text: NWWW 190630Z AUTO 15005KT 9999 BKN039/// BKN045/// BKN058/// ///CB 28/23 Q1011 BECMG SCT040
Conditions at: NWWW (LA TONTOUTA NLLE, WS) observed 0630 UTC 19 March 2019
Temperature: 28.0°C (82°F)
Dewpoint: 23.0°C (73°F) [RH = 74%]
Pressure (altimeter): 29.85 inches Hg (1011.0 mb)
Winds: from the SSE (150 degrees) at 6 MPH (5 knots; 2.6 m/s)
Visibility: 6 or more miles (10+ km)
Ceiling: 3900 feet AGL
Clouds: broken clouds at 3900 feet AGL
broken clouds at 4500 feet AGL
broken clouds at 5800 feet AGL
Weather: no significant weather observed at this time

METAR text: NWWW 190600Z AUTO 15005KT 9999 SCT041 BKN048 BKN058 29/22 Q1010 TEMPO SHRA FEW020TCU
Conditions at: NWWW (LA TONTOUTA NLLE, WS) observed 0600 UTC 19 March 2019
Temperature: 29.0°C (84°F)
Dewpoint: 22.0°C (72°F) [RH = 66%]
Pressure (altimeter): 29.82 inches Hg (1010.0 mb)
Winds: from the SSE (150 degrees) at 6 MPH (5 knots; 2.6 m/s)
Visibility: 6 or more miles (10+ km)
Ceiling: 4800 feet AGL
Clouds: scattered clouds at 4100 feet AGL
broken clouds at 4800 feet AGL
broken clouds at 5800 feet AGL
Weather: no significant weather observed at this time

METAR text: NWWW 190530Z AUTO VRB03KT 9999 SCT041 30/22 Q1010 TEMPO SHRA FEW020TCU
Conditions at: NWWW (LA TONTOUTA NLLE, WS) observed 0530 UTC 19 March 2019
Temperature: 30.0°C (86°F)
Dewpoint: 22.0°C (72°F) [RH = 62%]
Pressure (altimeter): 29.82 inches Hg (1010.0 mb)
Winds: variable direction winds at 3 MPH (3 knots; 1.5 m/s)
Visibility: 6 or more miles (10+ km)
Ceiling: at least 12,000 feet AGL
Clouds: scattered clouds at 4100 feet AGL
Weather: no significant weather observed at this time

METAR text: NWWW 190500Z AUTO 19004KT 140V270 9999 FEW040 30/23 Q1010 TEMPO SHRA FEW020TCU
Conditions at: NWWW (LA TONTOUTA NLLE, WS) observed 0500 UTC 19 March 2019
Temperature: 30.0°C (86°F)
Dewpoint: 23.0°C (73°F) [RH = 66%]
Pressure (altimeter): 29.82 inches Hg (1010.0 mb)
Winds: from the S (190 degrees) at 5 MPH (4 knots; 2.1 m/s)
Visibility: 6 or more miles (10+ km)
Ceiling: at least 12,000 feet AGL
Clouds: few clouds at 4000 feet AGL
Weather: no significant weather observed at this time

METAR text: NWWW 190430Z AUTO VRB03KT 9999 ///TCU 30/23 Q1010 TEMPO SHRA BECMG FEW040
Conditions at: NWWW (LA TONTOUTA NLLE, WS) observed 0430 UTC 19 March 2019
Temperature: 30.0°C (86°F)
Dewpoint: 23.0°C (73°F) [RH = 66%]
Pressure (altimeter): 29.82 inches Hg (1010.0 mb)
Winds: variable direction winds at 3 MPH (3 knots; 1.5 m/s)
Visibility: 6 or more miles (10+ km)
Ceiling: unknown
Clouds: missing
Weather: no significant weather observed at this time

METAR text: NWWW 190400Z AUTO VRB02KT 9999 FEW036 SCT068 30/23 Q1010 TEMPO SHRA FEW020TCU
Conditions at: NWWW (LA TONTOUTA NLLE, WS) observed 0400 UTC 19 March 2019
Temperature: 30.0°C (86°F)
Dewpoint: 23.0°C (73°F) [RH = 66%]
Pressure (altimeter): 29.82 inches Hg (1010.0 mb)
Winds: variable direction winds at 2 MPH (2 knots; 1.0 m/s)
Visibility: 6 or more miles (10+ km)
Ceiling: at least 12,000 feet AGL
Clouds: few clouds at 3600 feet AGL
scattered clouds at 6800 feet AGL
Weather: no significant weather observed at this time

METAR text: NWWW 190330Z AUTO VRB02KT 9999 BKN037 OVC048 28/23 Q1011 TEMPO SHRA FEW020TCU
Conditions at: NWWW (LA TONTOUTA NLLE, WS) observed 0330 UTC 19 March 2019
Temperature: 28.0°C (82°F)
Dewpoint: 23.0°C (73°F) [RH = 74%]
Pressure (altimeter): 29.85 inches Hg (1011.0 mb)
Winds: variable direction winds at 2 MPH (2 knots; 1.0 m/s)
Visibility: 6 or more miles (10+ km)
Ceiling: 3700 feet AGL
Clouds: broken clouds at 3700 feet AGL
overcast cloud deck at 4800 feet AGL
Weather: no significant weather observed at this time

METAR text: NWWW 190300Z AUTO 23006KT 190V270 9999 FEW029/// SCT070/// BKN082/// ///TCU 31/23 Q1011 TEMPO SHRA
Conditions at: NWWW (LA TONTOUTA NLLE, WS) observed 0300 UTC 19 March 2019
Temperature: 31.0°C (88°F)
Dewpoint: 23.0°C (73°F) [RH = 63%]
Pressure (altimeter): 29.85 inches Hg (1011.0 mb)
Winds: from the SW (230 degrees) at 7 MPH (6 knots; 3.1 m/s)
Visibility: 6 or more miles (10+ km)
Ceiling: 8200 feet AGL
Clouds: few clouds at 2900 feet AGL
scattered clouds at 7000 feet AGL
broken clouds at 8200 feet AGL
Weather: no significant weather observed at this time

METAR text: NWWW 190230Z AUTO 23008KT 190V260 9999 FEW049 SCT078 30/22 Q1011 TEMPO SHRA FEW020TCU
Conditions at: NWWW (LA TONTOUTA NLLE, WS) observed 0230 UTC 19 March 2019
Temperature: 30.0°C (86°F)
Dewpoint: 22.0°C (72°F) [RH = 62%]
Pressure (altimeter): 29.85 inches Hg (1011.0 mb)
Winds: from the SW (230 degrees) at 9 MPH (8 knots; 4.1 m/s)
Visibility: 6 or more miles (10+ km)
Ceiling: at least 12,000 feet AGL
Clouds: few clouds at 4900 feet AGL
scattered clouds at 7800 feet AGL
Weather: no significant weather observed at this time

METAR text: NWWW 190200Z AUTO 25006KT 220V300 CAVOK 31/23 Q1011 TEMPO SHRA FEW020TCU
Conditions at: NWWW (LA TONTOUTA NLLE, WS) observed 0200 UTC 19 March 2019
Temperature: 31.0°C (88°F)
Dewpoint: 23.0°C (73°F) [RH = 63%]
Pressure (altimeter): 29.85 inches Hg (1011.0 mb)
Winds: from the WSW (250 degrees) at 7 MPH (6 knots; 3.1 m/s)
Visibility: 6 or more miles (10+ km)
Ceiling: ceiling and visibility are OK
Clouds: unknown
Weather: no significant weather observed at this time

METAR text: NWWW 190130Z AUTO 20004KT 160V260 CAVOK 30/22 Q1011 TEMPO SHRA FEW020TCU
Conditions at: NWWW (LA TONTOUTA NLLE, WS) observed 0130 UTC 19 March 2019
Temperature: 30.0°C (86°F)
Dewpoint: 22.0°C (72°F) [RH = 62%]
Pressure (altimeter): 29.85 inches Hg (1011.0 mb)
Winds: from the SSW (200 degrees) at 5 MPH (4 knots; 2.1 m/s)
Visibility: 6 or more miles (10+ km)
Ceiling: ceiling and visibility are OK
Clouds: unknown
Weather: no significant weather observed at this time

METAR text: NWWW 190100Z AUTO 21005KT 180V250 9999 FEW039 SCT190 30/21 Q1012 TEMPO SHRA FEW020TCU
Conditions at: NWWW (LA TONTOUTA NLLE, WS) observed 0100 UTC 19 March 2019
Temperature: 30.0°C (86°F)
Dewpoint: 21.0°C (70°F) [RH = 59%]
Pressure (altimeter): 29.88 inches Hg (1012.0 mb)
Winds: from the SSW (210 degrees) at 6 MPH (5 knots; 2.6 m/s)
Visibility: 6 or more miles (10+ km)
Ceiling: at least 12,000 feet AGL
Clouds: few clouds at 3900 feet AGL
scattered clouds at 19000 feet AGL
Weather: no significant weather observed at this time

METAR text: NWWW 190030Z AUTO 27004KT 220V320 9999 FEW038/// 30/21 Q1012 TEMPO SHRA FEW020TCU
Conditions at: NWWW (LA TONTOUTA NLLE, WS) observed 0030 UTC 19 March 2019
Temperature: 30.0°C (86°F)
Dewpoint: 21.0°C (70°F) [RH = 59%]
Pressure (altimeter): 29.88 inches Hg (1012.0 mb)
Winds: from the W (270 degrees) at 5 MPH (4 knots; 2.1 m/s)
Visibility: 6 or more miles (10+ km)
Ceiling: at least 12,000 feet AGL
Clouds: few clouds at 3800 feet AGL
Weather: no significant weather observed at this time

METAR text: NWWW 190000Z AUTO 21006KT 170V260 9999 FEW048/// 29/22 Q1012 NOSIG
Conditions at: NWWW (LA TONTOUTA NLLE, WS) observed 0000 UTC 19 March 2019
Temperature: 29.0°C (84°F)
Dewpoint: 22.0°C (72°F) [RH = 66%]
Pressure (altimeter): 29.88 inches Hg (1012.0 mb)
Winds: from the SSW (210 degrees) at 7 MPH (6 knots; 3.1 m/s)
Visibility: 6 or more miles (10+ km)
Ceiling: at least 12,000 feet AGL
Clouds: few clouds at 4800 feet AGL
Weather: no significant weather observed at this time

METAR text: NWWW 182330Z AUTO 24006KT 210V270 9999 FEW048 SCT054 BKN240 29/22 Q1012 NOSIG
Conditions at: NWWW (LA TONTOUTA NLLE, WS) observed 2330 UTC 18 March 2019
Temperature: 29.0°C (84°F)
Dewpoint: 22.0°C (72°F) [RH = 66%]
Pressure (altimeter): 29.88 inches Hg (1012.0 mb)
Winds: from the WSW (240 degrees) at 7 MPH (6 knots; 3.1 m/s)
Visibility: 6 or more miles (10+ km)
Ceiling: 24000 feet AGL
Clouds: few clouds at 4800 feet AGL
scattered clouds at 5400 feet AGL
broken clouds at 24000 feet AGL
Weather: no significant weather observed at this time

METAR text: NWWW 182300Z AUTO 14004KT 090V220 CAVOK 29/21 Q1012 TEMPO SHRA FEW020TCU
Conditions at: NWWW (LA TONTOUTA NLLE, WS) observed 2300 UTC 18 March 2019
Temperature: 29.0°C (84°F)
Dewpoint: 21.0°C (70°F) [RH = 62%]
Pressure (altimeter): 29.88 inches Hg (1012.0 mb)
Winds: from the SE (140 degrees) at 5 MPH (4 knots; 2.1 m/s)
Visibility: 6 or more miles (10+ km)
Ceiling: ceiling and visibility are OK
Clouds: unknown
Weather: no significant weather observed at this time

METAR text: NWWW 182230Z AUTO 19002KT CAVOK 28/20 Q1012 TEMPO SHRA FEW020TCU
Conditions at: NWWW (LA TONTOUTA NLLE, WS) observed 2230 UTC 18 March 2019
Temperature: 28.0°C (82°F)
Dewpoint: 20.0°C (68°F) [RH = 62%]
Pressure (altimeter): 29.88 inches Hg (1012.0 mb)
Winds: from the S (190 degrees) at 2 MPH (2 knots; 1.0 m/s)
Visibility: 6 or more miles (10+ km)
Ceiling: ceiling and visibility are OK
Clouds: unknown
Weather: no significant weather observed at this time

METAR text: NWWW 182200Z AUTO VRB02KT CAVOK 29/21 Q1013 NOSIG
Conditions at: NWWW (LA TONTOUTA NLLE, WS) observed 2200 UTC 18 March 2019
Temperature: 29.0°C (84°F)
Dewpoint: 21.0°C (70°F) [RH = 62%]
Pressure (altimeter): 29.91 inches Hg (1013.0 mb)
Winds: variable direction winds at 2 MPH (2 knots; 1.0 m/s)
Visibility: 6 or more miles (10+ km)
Ceiling: ceiling and visibility are OK
Clouds: unknown
Weather: no significant weather observed at this time

METAR text: NWWW 182130Z AUTO VRB02KT CAVOK 28/21 Q1013 NOSIG
Conditions at: NWWW (LA TONTOUTA NLLE, WS) observed 2130 UTC 18 March 2019
Temperature: 28.0°C (82°F)
Dewpoint: 21.0°C (70°F) [RH = 66%]
Pressure (altimeter): 29.91 inches Hg (1013.0 mb)
Winds: variable direction winds at 2 MPH (2 knots; 1.0 m/s)
Visibility: 6 or more miles (10+ km)
Ceiling: ceiling and visibility are OK
Clouds: unknown
Weather: no significant weather observed at this time

METAR text: NWWW 182100Z AUTO 00000KT CAVOK 26/21 Q1013 BECMG 14010KT
Conditions at: NWWW (LA TONTOUTA NLLE, WS) observed 2100 UTC 18 March 2019
Temperature: 26.0°C (79°F)
Dewpoint: 21.0°C (70°F) [RH = 74%]
Pressure (altimeter): 29.91 inches Hg (1013.0 mb)
Winds: calm
Visibility: 6 or more miles (10+ km)
Ceiling: ceiling and visibility are OK
Clouds: unknown
Weather: no significant weather observed at this time

METAR text: NWWW 182030Z AUTO VRB01KT CAVOK 24/21 Q1012 NOSIG
Conditions at: NWWW (LA TONTOUTA NLLE, WS) observed 2030 UTC 18 March 2019
Temperature: 24.0°C (75°F)
Dewpoint: 21.0°C (70°F) [RH = 83%]
Pressure (altimeter): 29.88 inches Hg (1012.0 mb)
Winds: variable direction winds at 1 MPH (1 knots; 0.5 m/s)
Visibility: 6 or more miles (10+ km)
Ceiling: ceiling and visibility are OK
Clouds: unknown
Weather: no significant weather observed at this time

METAR text: NWWW 182000Z AUTO 12003KT CAVOK 23/21 Q1012 NOSIG
Conditions at: NWWW (LA TONTOUTA NLLE, WS) observed 2000 UTC 18 March 2019
Temperature: 23.0°C (73°F)
Dewpoint: 21.0°C (70°F) [RH = 89%]
Pressure (altimeter): 29.88 inches Hg (1012.0 mb)
Winds: from the ESE (120 degrees) at 3 MPH (3 knots; 1.5 m/s)
Visibility: 6 or more miles (10+ km)
Ceiling: ceiling and visibility are OK
Clouds: unknown
Weather: no significant weather observed at this time

METAR text: NWWW 181930Z AUTO 00000KT CAVOK 22/20 Q1012 NOSIG
Conditions at: NWWW (LA TONTOUTA NLLE, WS) observed 1930 UTC 18 March 2019
Temperature: 22.0°C (72°F)
Dewpoint: 20.0°C (68°F) [RH = 88%]
Pressure (altimeter): 29.88 inches Hg (1012.0 mb)
Winds: calm
Visibility: 6 or more miles (10+ km)
Ceiling: ceiling and visibility are OK
Clouds: unknown
Weather: no significant weather observed at this time

Forecast for: NWWW (LA TONTOUTA NLLE, WS)
Text: TAF NWWW 200500Z 2006/2106 19008KT 9999 SCT050
Forecast period: 0600 to 0700 UTC 20 March 2019
Forecast type: FROM: standard forecast or significant change
Winds: from the S (190 degrees) at 9 MPH (8 knots; 4.1 m/s)
Visibility: 6 or more miles 10+ km)
Ceiling: at least 12,000 feet AGL
Clouds: scattered clouds at 5000 feet AGL
Weather: no significant weather forecast for this period
Text: PROB40
Forecast period: 0600 to 0700 UTC 20 March 2019
Forecast type: TEMPORARY: The following changes expected for less than half the time period
Visibility: missing
Ceiling: at least 12,000 feet AGL
Clouds: few clouds at 2000 feet AGL
Weather: SHRA  (rain showers)
Text: TEMPO 2006/2007 SHRA FEW020CB
Forecast period: 0700 to 2300 UTC 20 March 2019
Forecast type: BECOMING: Conditions expected to become as follows by 0900 UTC 20 March 2019
Winds: variable direction winds at 2 MPH (2 knots; 1.0 m/s)
Visibility: 6 or more miles 10+ km)
Ceiling: at least 12,000 feet AGL
Clouds: scattered clouds at 5000 feet AGL
Weather: no significant weather forecast for this period
Text: BECMG 2007/2009 VRB02KT
Forecast period: 2300 UTC 20 March 2019 to 0600 UTC 21 March 2019
Forecast type: BECOMING: Conditions expected to become as follows by 0100 UTC 21 March 2019
Winds: from the S (170 degrees) at 14 MPH (12 knots; 6.2 m/s)
Visibility: 6 or more miles 10+ km)
Ceiling: at least 12,000 feet AGL
Clouds: scattered clouds at 5000 feet AGL
Weather: no significant weather forecast for this period